Marlborough, Massachusetts
Current Conditions -  °F | °C
As of 6:56 AM on Sunday 23 Nov 2014 (Local Time) from KBED Reporting Station
Scattered Clouds Scattered Clouds  
Wind Chill: 36°   Ceiling: Unl
Heat Index: 41°   Visibility: 10mi
Dew Point: 28°   Wind: 8mph
Humidity: 60%   Direction: 230°SW
Pressure: 30.09"   Gusts: NA
Location:  42.35°N, 71.55°W
Report Text: KBED 231156Z 23007KT 10SM SCT095 05/M02 A3009 RMK AO2 SLP203 T00501022 10061 20044 53008
Loading
Personal Weather Stations






























Interactive Weather Map New forecast layout! Learn more

10-Day Weather Forecast

Advertisements
Track Severe Weather on mobile